Nottoway, Virginia
Current Conditions -  °F | °C
As of 5:35 AM on Wednesday 22 Oct 2014 (Local Time) from KW81 Reporting Station
Overcast Overcast  
Wind Chill: 50°   Ceiling: 4800
Heat Index: 50°   Visibility: 10mi
Dew Point: 48°   Wind: 5mph
Humidity: 91%   Direction: 290°WNW
Pressure: 29.91"   Gusts: NA
Location:  37.13°N, 78.08°W
Report Text: KW81 220935Z AUTO 29004KT 10SM SCT039 BKN048 OVC060 10/09 A2991 RMK AO1 P0002 T01010087
Loading
Personal Weather Stations






























Interactive Weather Map
Tropical Storm Tracking
New forecast layout! Learn more

10-Day Weather Forecast

Advertisements
Track Severe Weather on mobile